sensor_id;sensor_type;location;lat;lon;timestamp;pressure;altitude;pressure_sealevel;temperature;humidity
49178;BME280;35016;55.674;37.468;2023-04-23T00:01:17;98807.13;;;9.85;40.41
49178;BME280;35016;55.674;37.468;2023-04-23T00:03:45;98809.81;;;9.85;40.09
49178;BME280;35016;55.674;37.468;2023-04-23T00:06:14;98808.75;;;9.86;40.40
49178;BME280;35016;55.674;37.468;2023-04-23T00:08:43;98812.81;;;9.84;39.87
49178;BME280;35016;55.674;37.468;2023-04-23T00:11:10;98812.50;;;9.80;40.16
49178;BME280;35016;55.674;37.468;2023-04-23T00:13:38;98813.06;;;9.77;40.26
49178;BME280;35016;55.674;37.468;2023-04-23T00:16:05;98810.06;;;9.74;40.37
49178;BME280;35016;55.674;37.468;2023-04-23T00:18:33;98814.13;;;9.71;40.61
49178;BME280;35016;55.674;37.468;2023-04-23T00:21:00;98817.66;;;9.67;40.25
49178;BME280;35016;55.674;37.468;2023-04-23T00:23:27;98827.41;;;9.62;40.52
49178;BME280;35016;55.674;37.468;2023-04-23T00:25:54;98825.25;;;9.59;40.38
49178;BME280;35016;55.674;37.468;2023-04-23T00:28:22;98822.81;;;9.58;40.71
49178;BME280;35016;55.674;37.468;2023-04-23T00:30:49;98818.75;;;9.55;40.73
49178;BME280;35016;55.674;37.468;2023-04-23T00:33:15;98820.38;;;9.56;40.94
49178;BME280;35016;55.674;37.468;2023-04-23T00:35:43;98829.31;;;9.57;40.61
49178;BME280;35016;55.674;37.468;2023-04-23T00:38:10;98824.69;;;9.57;40.84
49178;BME280;35016;55.674;37.468;2023-04-23T00:40:37;98833.09;;;9.61;40.59
49178;BME280;35016;55.674;37.468;2023-04-23T00:43:05;98833.63;;;9.63;40.67
49178;BME280;35016;55.674;37.468;2023-04-23T00:45:33;98833.63;;;9.63;40.69
49178;BME280;35016;55.674;37.468;2023-04-23T00:48:01;98832.28;;;9.60;40.54
49178;BME280;35016;55.674;37.468;2023-04-23T00:50:28;98835.81;;;9.61;40.57
49178;BME280;35016;55.674;37.468;2023-04-23T00:52:55;98843.66;;;9.57;40.94
49178;BME280;35016;55.674;37.468;2023-04-23T00:55:22;98835.53;;;9.62;40.90
49178;BME280;35016;55.674;37.468;2023-04-23T00:57:50;98832.81;;;9.62;40.96
49178;BME280;35016;55.674;37.468;2023-04-23T01:00:18;98842.84;;;9.67;40.64
49178;BME280;35016;55.674;37.468;2023-04-23T01:02:47;98841.50;;;9.65;40.47
49178;BME280;35016;55.674;37.468;2023-04-23T01:05:16;98847.72;;;9.65;40.90
49178;BME280;35016;55.674;37.468;2023-04-23T01:07:46;98842.56;;;9.63;41.17
49178;BME280;35016;55.674;37.468;2023-04-23T01:10:13;98840.41;;;9.60;40.83
49178;BME280;35016;55.674;37.468;2023-04-23T01:12:40;98846.34;;;9.57;40.80
49178;BME280;35016;55.674;37.468;2023-04-23T01:15:08;98846.91;;;9.54;41.42
49178;BME280;35016;55.674;37.468;2023-04-23T01:17:35;98847.94;;;9.53;40.72
49178;BME280;35016;55.674;37.468;2023-04-23T01:20:05;98851.19;;;9.50;41.31
49178;BME280;35016;55.674;37.468;2023-04-23T01:22:35;98856.59;;;9.50;41.08
49178;BME280;35016;55.674;37.468;2023-04-23T01:25:03;98847.94;;;9.48;41.48
49178;BME280;35016;55.674;37.468;2023-04-23T01:27:31;98845.50;;;9.47;41.31
49178;BME280;35016;55.674;37.468;2023-04-23T01:30:00;98845.78;;;9.45;41.71
49178;BME280;35016;55.674;37.468;2023-04-23T01:32:30;98848.47;;;9.45;41.00
49178;BME280;35016;55.674;37.468;2023-04-23T01:34:58;98847.69;;;9.45;40.64
49178;BME280;35016;55.674;37.468;2023-04-23T01:37:26;98851.72;;;9.42;41.33
49178;BME280;35016;55.674;37.468;2023-04-23T01:39:53;98847.69;;;9.45;41.28
49178;BME280;35016;55.674;37.468;2023-04-23T01:42:20;98855.53;;;9.46;41.57
49178;BME280;35016;55.674;37.468;2023-04-23T01:44:52;98851.72;;;9.47;40.78
49178;BME280;35016;55.674;37.468;2023-04-23T01:47:19;98845.50;;;9.47;41.10
49178;BME280;35016;55.674;37.468;2023-04-23T01:49:46;98847.69;;;9.50;41.52
49178;BME280;35016;55.674;37.468;2023-04-23T01:52:14;98854.72;;;9.51;41.51
49178;BME280;35016;55.674;37.468;2023-04-23T01:54:41;98848.53;;;9.55;41.60
49178;BME280;35016;55.674;37.468;2023-04-23T01:57:09;98858.00;;;9.58;41.66
49178;BME280;35016;55.674;37.468;2023-04-23T01:59:36;98854.47;;;9.62;41.40
49178;BME280;35016;55.674;37.468;2023-04-23T02:02:04;98852.03;;;9.71;41.52
49178;BME280;35016;55.674;37.468;2023-04-23T02:04:32;98862.06;;;9.76;41.82
49178;BME280;35016;55.674;37.468;2023-04-23T02:07:00;98858.53;;;9.80;41.50
49178;BME280;35016;55.674;37.468;2023-04-23T02:09:27;98856.94;;;9.84;41.48
49178;BME280;35016;55.674;37.468;2023-04-23T02:11:54;98868.84;;;9.88;41.44
49178;BME280;35016;55.674;37.468;2023-04-23T02:14:21;98857.47;;;9.91;41.34
49178;BME280;35016;55.674;37.468;2023-04-23T02:16:47;98869.41;;;9.96;41.38
49178;BME280;35016;55.674;37.468;2023-04-23T02:19:16;98864.25;;;9.99;41.35
49178;BME280;35016;55.674;37.468;2023-04-23T02:21:43;98868.03;;;10.03;41.41
49178;BME280;35016;55.674;37.468;2023-04-23T02:24:10;98865.06;;;10.05;41.52
49178;BME280;35016;55.674;37.468;2023-04-23T02:26:37;98876.19;;;10.13;41.31
49178;BME280;35016;55.674;37.468;2023-04-23T02:29:04;98874.84;;;10.21;41.24
49178;BME280;35016;55.674;37.468;2023-04-23T02:31:31;98869.13;;;10.28;40.94
49178;BME280;35016;55.674;37.468;2023-04-23T02:33:59;98869.94;;;10.33;41.34
49178;BME280;35016;55.674;37.468;2023-04-23T02:36:26;98869.13;;;10.38;40.81
49178;BME280;35016;55.674;37.468;2023-04-23T02:38:56;98871.84;;;10.43;41.09
49178;BME280;35016;55.674;37.468;2023-04-23T02:41:23;98877.25;;;10.48;40.44
49178;BME280;35016;55.674;37.468;2023-04-23T02:43:50;98877.78;;;10.55;41.01
49178;BME280;35016;55.674;37.468;2023-04-23T02:46:17;98876.66;;;10.61;40.50
49178;BME280;35016;55.674;37.468;2023-04-23T02:48:45;98866.88;;;10.65;40.59
49178;BME280;35016;55.674;37.468;2023-04-23T02:51:13;98876.66;;;10.71;41.20
49178;BME280;35016;55.674;37.468;2023-04-23T02:53:40;98870.16;;;10.72;40.89
49178;BME280;35016;55.674;37.468;2023-04-23T02:56:07;98874.75;;;10.77;40.51
49178;BME280;35016;55.674;37.468;2023-04-23T02:58:34;98876.88;;;10.85;40.45
49178;BME280;35016;55.674;37.468;2023-04-23T03:01:02;98876.84;;;10.90;40.49
49178;BME280;35016;55.674;37.468;2023-04-23T03:03:30;98879.00;;;10.98;40.36
49178;BME280;35016;55.674;37.468;2023-04-23T03:06:02;98889.56;;;11.05;40.25
49178;BME280;35016;55.674;37.468;2023-04-23T03:08:29;98886.03;;;11.09;40.37
49178;BME280;35016;55.674;37.468;2023-04-23T03:10:57;98896.03;;;11.14;39.71
49178;BME280;35016;55.674;37.468;2023-04-23T03:13:25;98905.25;;;11.18;40.59
49178;BME280;35016;55.674;37.468;2023-04-23T03:15:52;98894.63;;;11.22;40.02
49178;BME280;35016;55.674;37.468;2023-04-23T03:18:20;98902.50;;;11.23;40.41
49178;BME280;35016;55.674;37.468;2023-04-23T03:20:50;98906.28;;;11.27;39.95
49178;BME280;35016;55.674;37.468;2023-04-23T03:23:17;98907.94;;;11.28;39.77
49178;BME280;35016;55.674;37.468;2023-04-23T03:25:46;98909.00;;;11.32;39.76
49178;BME280;35016;55.674;37.468;2023-04-23T03:28:13;98912.25;;;11.34;40.31
49178;BME280;35016;55.674;37.468;2023-04-23T03:30:40;98916.81;;;11.39;40.26
49178;BME280;35016;55.674;37.468;2023-04-23T03:33:08;98916.78;;;11.44;40.20
49178;BME280;35016;55.674;37.468;2023-04-23T03:35:36;98921.38;;;11.48;40.01
49178;BME280;35016;55.674;37.468;2023-04-23T03:38:07;98913.50;;;11.57;39.65
49178;BME280;35016;55.674;37.468;2023-04-23T03:40:35;98915.88;;;11.64;40.19
49178;BME280;35016;55.674;37.468;2023-04-23T03:43:05;98924.50;;;11.76;39.56
49178;BME280;35016;55.674;37.468;2023-04-23T03:45:50;98924.72;;;11.85;39.28
49178;BME280;35016;55.674;37.468;2023-04-23T03:48:17;98920.63;;;11.92;39.31
49178;BME280;35016;55.674;37.468;2023-04-23T03:50:44;98926.56;;;11.99;39.53
49178;BME280;35016;55.674;37.468;2023-04-23T03:53:31;98928.94;;;12.06;39.43
49178;BME280;35016;55.674;37.468;2023-04-23T03:56:17;98933.75;;;12.19;39.40
49178;BME280;35016;55.674;37.468;2023-04-23T03:59:02;98938.25;;;12.34;39.20
49178;BME280;35016;55.674;37.468;2023-04-23T04:01:30;98934.91;;;12.42;39.34
49178;BME280;35016;55.674;37.468;2023-04-23T04:03:58;98939.75;;;12.50;39.06
49178;BME280;35016;55.674;37.468;2023-04-23T04:06:26;98944.84;;;12.57;38.99
49178;BME280;35016;55.674;37.468;2023-04-23T04:08:54;98939.66;;;12.60;39.18
49178;BME280;35016;55.674;37.468;2023-04-23T04:11:21;98943.13;;;12.66;38.79
49178;BME280;35016;55.674;37.468;2023-04-23T04:13:48;98943.13;;;12.66;38.93
49178;BME280;35016;55.674;37.468;2023-04-23T04:16:15;98948.00;;;12.69;38.97
49178;BME280;35016;55.674;37.468;2023-04-23T04:18:42;98942.53;;;12.74;39.11
49178;BME280;35016;55.674;37.468;2023-04-23T04:21:10;98949.81;;;12.79;38.53
49178;BME280;35016;55.674;37.468;2023-04-23T04:23:36;98951.38;;;12.85;38.76
49178;BME280;35016;55.674;37.468;2023-04-23T04:26:04;98952.66;;;12.92;38.76
49178;BME280;35016;55.674;37.468;2023-04-23T04:28:31;98952.31;;;12.99;38.41
49178;BME280;35016;55.674;37.468;2023-04-23T04:31:05;98957.97;;;13.08;38.74
49178;BME280;35016;55.674;37.468;2023-04-23T04:33:32;98956.00;;;13.13;38.35
49178;BME280;35016;55.674;37.468;2023-04-23T04:36:02;98952.34;;;13.23;38.29
49178;BME280;35016;55.674;37.468;2023-04-23T04:38:30;98956.09;;;13.32;38.18
49178;BME280;35016;55.674;37.468;2023-04-23T04:40:59;98960.88;;;13.40;38.06
49178;BME280;35016;55.674;37.468;2023-04-23T04:43:28;98964.13;;;13.42;38.17
49178;BME280;35016;55.674;37.468;2023-04-23T04:45:54;98967.88;;;13.46;38.15
49178;BME280;35016;55.674;37.468;2023-04-23T04:48:21;98962.81;;;13.58;38.15
49178;BME280;35016;55.674;37.468;2023-04-23T04:50:49;98973.81;;;13.72;38.17
49178;BME280;35016;55.674;37.468;2023-04-23T04:53:16;98970.31;;;13.90;38.05
49178;BME280;35016;55.674;37.468;2023-04-23T04:55:43;98969.28;;;14.05;37.86
49178;BME280;35016;55.674;37.468;2023-04-23T04:58:10;98961.81;;;14.11;37.72
49178;BME280;35016;55.674;37.468;2023-04-23T05:00:37;98975.16;;;14.12;37.85
49178;BME280;35016;55.674;37.468;2023-04-23T05:03:05;98979.22;;;14.15;37.55
49178;BME280;35016;55.674;37.468;2023-04-23T05:05:33;98973.75;;;14.15;37.66
49178;BME280;35016;55.674;37.468;2023-04-23T05:08:00;98976.47;;;14.15;37.58
49178;BME280;35016;55.674;37.468;2023-04-23T05:10:30;98982.22;;;14.13;37.57
49178;BME280;35016;55.674;37.468;2023-04-23T05:12:59;98981.41;;;14.13;37.42
49178;BME280;35016;55.674;37.468;2023-04-23T05:15:26;98988.97;;;14.21;37.21
49178;BME280;35016;55.674;37.468;2023-04-23T05:17:53;98989.97;;;14.25;37.24
49178;BME280;35016;55.674;37.468;2023-04-23T05:20:20;98989.91;;;14.30;37.30
49178;BME280;35016;55.674;37.468;2023-04-23T05:22:47;98991.91;;;14.43;37.21
49178;BME280;35016;55.674;37.468;2023-04-23T05:25:15;98998.03;;;14.54;36.96
49178;BME280;35016;55.674;37.468;2023-04-23T05:27:42;98999.97;;;14.67;36.74
49178;BME280;35016;55.674;37.468;2023-04-23T05:30:09;99004.59;;;14.85;36.65
49178;BME280;35016;55.674;37.468;2023-04-23T05:32:37;99000.47;;;15.02;36.36
49178;BME280;35016;55.674;37.468;2023-04-23T05:35:05;99002.63;;;15.18;36.19
49178;BME280;35016;55.674;37.468;2023-04-23T05:37:33;99004.84;;;15.30;36.00
49178;BME280;35016;55.674;37.468;2023-04-23T05:40:00;98998.00;;;15.46;35.38
49178;BME280;35016;55.674;37.468;2023-04-23T05:42:31;99002.38;;;15.61;35.42
49178;BME280;35016;55.674;37.468;2023-04-23T05:44:58;99008.13;;;15.73;35.13
49178;BME280;35016;55.674;37.468;2023-04-23T05:47:25;99000.81;;;15.83;34.76
49178;BME280;35016;55.674;37.468;2023-04-23T05:49:52;99000.94;;;15.91;34.92
49178;BME280;35016;55.674;37.468;2023-04-23T05:52:19;99008.72;;;15.98;34.79
49178;BME280;35016;55.674;37.468;2023-04-23T05:54:46;99005.88;;;16.03;34.28
49178;BME280;35016;55.674;37.468;2023-04-23T05:57:13;99009.91;;;16.05;34.25
49178;BME280;35016;55.674;37.468;2023-04-23T05:59:41;99008.16;;;16.09;34.17
49178;BME280;35016;55.674;37.468;2023-04-23T06:02:09;99008.88;;;16.15;34.08
49178;BME280;35016;55.674;37.468;2023-04-23T06:04:36;99013.44;;;16.20;34.17
49178;BME280;35016;55.674;37.468;2023-04-23T06:07:05;99014.75;;;16.22;34.22
49178;BME280;35016;55.674;37.468;2023-04-23T06:09:32;99016.44;;;16.32;33.76
49178;BME280;35016;55.674;37.468;2023-04-23T06:11:59;99024.88;;;16.44;33.80
49178;BME280;35016;55.674;37.468;2023-04-23T06:14:26;99019.69;;;16.56;33.38
49178;BME280;35016;55.674;37.468;2023-04-23T06:16:53;99018.66;;;16.66;33.57
49178;BME280;35016;55.674;37.468;2023-04-23T06:19:21;99025.31;;;16.73;33.50
49178;BME280;35016;55.674;37.468;2023-04-23T06:21:50;99029.63;;;16.88;33.32
49178;BME280;35016;55.674;37.468;2023-04-23T06:24:17;99025.16;;;17.01;33.19
49178;BME280;35016;55.674;37.468;2023-04-23T06:26:45;99033.47;;;17.10;32.84
49178;BME280;35016;55.674;37.468;2023-04-23T06:29:16;99029.78;;;17.14;32.89
49178;BME280;35016;55.674;37.468;2023-04-23T06:31:50;99030.25;;;17.16;32.92
49178;BME280;35016;55.674;37.468;2023-04-23T06:34:17;99038.66;;;17.20;32.86
49178;BME280;35016;55.674;37.468;2023-04-23T06:36:44;99035.13;;;17.19;32.91
49178;BME280;35016;55.674;37.468;2023-04-23T06:39:11;99037.53;;;17.21;32.48
49178;BME280;35016;55.674;37.468;2023-04-23T06:41:38;99047.09;;;17.32;32.86
49178;BME280;35016;55.674;37.468;2023-04-23T06:44:27;99037.50;;;17.43;32.64
49178;BME280;35016;55.674;37.468;2023-04-23T06:46:54;99047.38;;;17.53;32.44
49178;BME280;35016;55.674;37.468;2023-04-23T06:49:22;99046.41;;;17.57;32.30
49178;BME280;35016;55.674;37.468;2023-04-23T06:51:49;99050.13;;;17.61;32.07
49178;BME280;35016;55.674;37.468;2023-04-23T06:54:16;99053.38;;;17.63;32.00
49178;BME280;35016;55.674;37.468;2023-04-23T06:56:43;99043.72;;;17.66;31.72
49178;BME280;35016;55.674;37.468;2023-04-23T06:59:11;99044.03;;;17.64;31.58
49178;BME280;35016;55.674;37.468;2023-04-23T07:01:44;99055.38;;;17.72;31.61
49178;BME280;35016;55.674;37.468;2023-04-23T07:04:11;99050.72;;;17.72;31.65
49178;BME280;35016;55.674;37.468;2023-04-23T07:06:38;99056.06;;;17.86;31.64
49178;BME280;35016;55.674;37.468;2023-04-23T07:09:05;99063.53;;;18.03;31.29
49178;BME280;35016;55.674;37.468;2023-04-23T07:11:33;99059.03;;;18.15;31.12
49178;BME280;35016;55.674;37.468;2023-04-23T07:14:02;99062.00;;;18.27;31.20
49178;BME280;35016;55.674;37.468;2023-04-23T07:16:29;99055.69;;;18.36;31.01
49178;BME280;35016;55.674;37.468;2023-04-23T07:19:00;99052.47;;;18.34;31.01
49178;BME280;35016;55.674;37.468;2023-04-23T07:21:28;99059.56;;;18.35;30.90
49178;BME280;35016;55.674;37.468;2023-04-23T07:23:57;99062.31;;;18.35;30.83
49178;BME280;35016;55.674;37.468;2023-04-23T07:26:51;99064.41;;;18.46;30.46
49178;BME280;35016;55.674;37.468;2023-04-23T07:29:19;99060.84;;;18.46;30.67
49178;BME280;35016;55.674;37.468;2023-04-23T07:31:46;99062.66;;;18.50;30.67
49178;BME280;35016;55.674;37.468;2023-04-23T07:34:14;99068.97;;;18.60;30.52
49178;BME280;35016;55.674;37.468;2023-04-23T07:36:41;99057.34;;;18.71;30.64
49178;BME280;35016;55.674;37.468;2023-04-23T07:39:08;99061.41;;;18.82;30.50
49178;BME280;35016;55.674;37.468;2023-04-23T07:41:36;99062.50;;;18.90;30.45
49178;BME280;35016;55.674;37.468;2023-04-23T07:44:03;99062.66;;;18.94;30.26
49178;BME280;35016;55.674;37.468;2023-04-23T07:46:30;99067.69;;;18.92;30.07
49178;BME280;35016;55.674;37.468;2023-04-23T07:48:57;99064.78;;;18.88;30.21
49178;BME280;35016;55.674;37.468;2023-04-23T07:51:27;99059.91;;;18.76;30.34
49178;BME280;35016;55.674;37.468;2023-04-23T07:53:54;99059.44;;;18.66;30.28
49178;BME280;35016;55.674;37.468;2023-04-23T07:56:22;99052.78;;;18.49;30.38
49178;BME280;35016;55.674;37.468;2023-04-23T07:58:50;99052.78;;;18.32;30.52
49178;BME280;35016;55.674;37.468;2023-04-23T08:01:19;99059.19;;;18.19;30.38
49178;BME280;35016;55.674;37.468;2023-04-23T08:03:47;99060.31;;;18.09;30.46
49178;BME280;35016;55.674;37.468;2023-04-23T08:06:15;99058.06;;;18.03;29.81
49178;BME280;35016;55.674;37.468;2023-04-23T08:08:43;99060.47;;;17.95;29.71
49178;BME280;35016;55.674;37.468;2023-04-23T08:11:11;99059.28;;;17.88;29.33
49178;BME280;35016;55.674;37.468;2023-04-23T08:13:38;99057.81;;;17.82;29.24
49178;BME280;35016;55.674;37.468;2023-04-23T08:16:05;99061.34;;;17.74;29.51
49178;BME280;35016;55.674;37.468;2023-04-23T08:18:32;99072.28;;;17.65;29.04
49178;BME280;35016;55.674;37.468;2023-04-23T08:21:00;99060.63;;;17.59;28.90
49178;BME280;35016;55.674;37.468;2023-04-23T08:23:28;99059.38;;;17.65;28.70
49178;BME280;35016;55.674;37.468;2023-04-23T08:25:55;99056.38;;;17.76;28.58
49178;BME280;35016;55.674;37.468;2023-04-23T08:28:21;99058.81;;;17.86;28.72
49178;BME280;35016;55.674;37.468;2023-04-23T08:30:49;99056.22;;;17.89;28.33
49178;BME280;35016;55.674;37.468;2023-04-23T08:33:16;99044.94;;;17.91;28.14
49178;BME280;35016;55.674;37.468;2023-04-23T08:35:43;99050.44;;;17.91;27.71
49178;BME280;35016;55.674;37.468;2023-04-23T08:38:10;99057.81;;;17.82;27.47
49178;BME280;35016;55.674;37.468;2023-04-23T08:40:37;99067.00;;;17.69;27.21
49178;BME280;35016;55.674;37.468;2023-04-23T08:43:14;99054.81;;;17.61;26.61
49178;BME280;35016;55.674;37.468;2023-04-23T08:45:46;99052.03;;;17.52;26.52
49178;BME280;35016;55.674;37.468;2023-04-23T08:48:13;99065.56;;;17.49;27.35
49178;BME280;35016;55.674;37.468;2023-04-23T08:50:42;99056.53;;;17.48;27.38
49178;BME280;35016;55.674;37.468;2023-04-23T08:53:09;99049.75;;;17.46;27.26
49178;BME280;35016;55.674;37.468;2023-04-23T08:55:37;99041.50;;;17.37;27.40
49178;BME280;35016;55.674;37.468;2023-04-23T08:58:04;99041.13;;;17.30;27.22
49178;BME280;35016;55.674;37.468;2023-04-23T09:00:32;99039.16;;;17.22;27.37
49178;BME280;35016;55.674;37.468;2023-04-23T09:03:03;99041.69;;;17.10;27.72
49178;BME280;35016;55.674;37.468;2023-04-23T09:05:31;99042.00;;;17.08;27.71
49178;BME280;35016;55.674;37.468;2023-04-23T09:07:58;99042.16;;;17.12;27.55
49178;BME280;35016;55.674;37.468;2023-04-23T09:10:26;99041.56;;;17.23;27.69
49178;BME280;35016;55.674;37.468;2023-04-23T09:12:53;99029.28;;;17.43;27.49
49178;BME280;35016;55.674;37.468;2023-04-23T09:15:21;99028.69;;;17.63;27.61
49178;BME280;35016;55.674;37.468;2023-04-23T09:17:48;99032.50;;;17.85;27.07
49178;BME280;35016;55.674;37.468;2023-04-23T09:20:16;99039.44;;;17.91;27.00
49178;BME280;35016;55.674;37.468;2023-04-23T09:22:47;99029.44;;;17.86;26.68
49178;BME280;35016;55.674;37.468;2023-04-23T09:25:22;99033.16;;;17.90;26.74
49178;BME280;35016;55.674;37.468;2023-04-23T09:27:51;99028.66;;;17.94;26.89
49178;BME280;35016;55.674;37.468;2023-04-23T09:30:19;99032.72;;;17.97;26.77
49178;BME280;35016;55.674;37.468;2023-04-23T09:32:47;99038.19;;;17.97;26.90
49178;BME280;35016;55.674;37.468;2023-04-23T09:35:16;99037.38;;;17.97;26.85
49178;BME280;35016;55.674;37.468;2023-04-23T09:37:50;99016.25;;;18.06;26.80
49178;BME280;35016;55.674;37.468;2023-04-23T09:40:20;99029.81;;;18.19;26.60
49178;BME280;35016;55.674;37.468;2023-04-23T09:42:50;99027.59;;;18.39;26.50
49178;BME280;35016;55.674;37.468;2023-04-23T09:45:21;99018.41;;;18.52;26.84
49178;BME280;35016;55.674;37.468;2023-04-23T09:47:55;99019.38;;;18.65;26.45
49178;BME280;35016;55.674;37.468;2023-04-23T09:50:33;99010.31;;;18.81;25.90
49178;BME280;35016;55.674;37.468;2023-04-23T09:53:02;99013.19;;;18.94;26.35
49178;BME280;35016;55.674;37.468;2023-04-23T09:55:31;99011.06;;;19.08;26.33
49178;BME280;35016;55.674;37.468;2023-04-23T09:58:05;99004.28;;;19.14;25.79
49178;BME280;35016;55.674;37.468;2023-04-23T10:00:35;99014.63;;;19.08;26.00
49178;BME280;35016;55.674;37.468;2023-04-23T10:03:03;99004.78;;;18.99;25.91
49178;BME280;35016;55.674;37.468;2023-04-23T10:05:37;99006.56;;;18.95;25.87
49178;BME280;35016;55.674;37.468;2023-04-23T10:08:26;99009.28;;;19.03;25.94
49178;BME280;35016;55.674;37.468;2023-04-23T10:10:53;99003.00;;;19.03;25.64
49178;BME280;35016;55.674;37.468;2023-04-23T10:13:40;99005.25;;;19.01;25.37
49178;BME280;35016;55.674;37.468;2023-04-23T10:16:08;98994.94;;;18.98;25.52
49178;BME280;35016;55.674;37.468;2023-04-23T10:18:50;99001.03;;;19.03;25.54
49178;BME280;35016;55.674;37.468;2023-04-23T10:21:19;99002.66;;;19.04;25.33
49178;BME280;35016;55.674;37.468;2023-04-23T10:23:50;99008.47;;;19.11;25.18
49178;BME280;35016;55.674;37.468;2023-04-23T10:26:19;98999.25;;;19.16;25.31
49178;BME280;35016;55.674;37.468;2023-04-23T10:28:49;98993.72;;;19.25;25.38
49178;BME280;35016;55.674;37.468;2023-04-23T10:31:18;98986.41;;;19.37;25.26
49178;BME280;35016;55.674;37.468;2023-04-23T10:33:49;98982.25;;;19.61;25.19
49178;BME280;35016;55.674;37.468;2023-04-23T10:36:25;98984.19;;;19.90;25.09
49178;BME280;35016;55.674;37.468;2023-04-23T10:38:53;98987.91;;;20.15;24.80
49178;BME280;35016;55.674;37.468;2023-04-23T10:41:34;98985.59;;;20.25;24.47
49178;BME280;35016;55.674;37.468;2023-04-23T10:44:04;98977.00;;;20.27;24.66
49178;BME280;35016;55.674;37.468;2023-04-23T10:46:32;98979.28;;;20.25;24.54
49178;BME280;35016;55.674;37.468;2023-04-23T10:51:34;98975.97;;;20.52;24.40
49178;BME280;35016;55.674;37.468;2023-04-23T10:54:28;98987.63;;;20.58;23.84
49178;BME280;35016;55.674;37.468;2023-04-23T10:57:01;98989.69;;;20.40;23.89
49178;BME280;35016;55.674;37.468;2023-04-23T10:59:33;98980.53;;;20.27;24.02
49178;BME280;35016;55.674;37.468;2023-04-23T11:02:09;98979.06;;;20.30;23.83
49178;BME280;35016;55.674;37.468;2023-04-23T11:04:44;98968.06;;;20.30;24.18
49178;BME280;35016;55.674;37.468;2023-04-23T11:07:12;98965.97;;;20.27;24.13
49178;BME280;35016;55.674;37.468;2023-04-23T11:09:42;98976.69;;;20.20;24.09
49178;BME280;35016;55.674;37.468;2023-04-23T11:14:51;98965.88;;;19.94;24.12
49178;BME280;35016;55.674;37.468;2023-04-23T11:20:17;98968.97;;;20.13;24.30
49178;BME280;35016;55.674;37.468;2023-04-23T11:22:47;98959.38;;;20.19;24.21
49178;BME280;35016;55.674;37.468;2023-04-23T11:27:48;98956.91;;;20.26;23.96
49178;BME280;35016;55.674;37.468;2023-04-23T11:30:21;98967.75;;;20.23;23.97
49178;BME280;35016;55.674;37.468;2023-04-23T11:32:53;98957.50;;;20.11;24.19
49178;BME280;35016;55.674;37.468;2023-04-23T11:35:22;98956.09;;;20.05;24.27
49178;BME280;35016;55.674;37.468;2023-04-23T11:37:59;98958.38;;;20.03;24.39
49178;BME280;35016;55.674;37.468;2023-04-23T11:40:26;98961.13;;;20.03;24.30
49178;BME280;35016;55.674;37.468;2023-04-23T11:42:56;98961.94;;;20.03;24.34
49178;BME280;35016;55.674;37.468;2023-04-23T11:45:27;98960.94;;;20.08;24.41
49178;BME280;35016;55.674;37.468;2023-04-23T11:47:55;98966.81;;;20.19;24.42
49178;BME280;35016;55.674;37.468;2023-04-23T11:50:28;98964.91;;;20.40;24.21
49178;BME280;35016;55.674;37.468;2023-04-23T11:52:56;98954.72;;;20.53;24.02
49178;BME280;35016;55.674;37.468;2023-04-23T11:55:23;98969.03;;;20.67;23.88
49178;BME280;35016;55.674;37.468;2023-04-23T11:57:51;98964.06;;;20.93;23.82
49178;BME280;35016;55.674;37.468;2023-04-23T12:00:23;98970.47;;;21.30;23.72
49178;BME280;35016;55.674;37.468;2023-04-23T12:02:59;98956.34;;;21.81;23.16
49178;BME280;35016;55.674;37.468;2023-04-23T12:05:28;98958.88;;;22.38;23.36
49178;BME280;35016;55.674;37.468;2023-04-23T12:08:08;98954.72;;;23.16;22.28
49178;BME280;35016;55.674;37.468;2023-04-23T12:10:44;98952.66;;;23.95;21.92
49178;BME280;35016;55.674;37.468;2023-04-23T12:15:53;98940.16;;;24.79;22.11
49178;BME280;35016;55.674;37.468;2023-04-23T12:18:41;98946.69;;;25.78;21.00
49178;BME280;35016;55.674;37.468;2023-04-23T12:21:11;98961.13;;;26.47;20.85
49178;BME280;35016;55.674;37.468;2023-04-23T12:23:40;98938.47;;;26.82;20.31
49178;BME280;35016;55.674;37.468;2023-04-23T12:26:12;98949.25;;;26.87;19.27
49178;BME280;35016;55.674;37.468;2023-04-23T12:31:21;98947.75;;;26.93;18.96
49178;BME280;35016;55.674;37.468;2023-04-23T12:34:03;98951.84;;;27.03;18.71
49178;BME280;35016;55.674;37.468;2023-04-23T12:36:30;98941.63;;;27.14;19.80
49178;BME280;35016;55.674;37.468;2023-04-23T12:39:21;98951.34;;;27.79;18.68
49178;BME280;35016;55.674;37.468;2023-04-23T12:41:53;98942.47;;;28.31;18.34
49178;BME280;35016;55.674;37.468;2023-04-23T12:44:20;98935.97;;;29.14;19.10
49178;BME280;35016;55.674;37.468;2023-04-23T12:46:52;98929.59;;;29.42;18.23
49178;BME280;35016;55.674;37.468;2023-04-23T12:49:23;98931.59;;;29.74;17.77
49178;BME280;35016;55.674;37.468;2023-04-23T12:51:54;98929.13;;;30.01;17.44
49178;BME280;35016;55.674;37.468;2023-04-23T12:54:24;98927.50;;;30.25;16.89
49178;BME280;35016;55.674;37.468;2023-04-23T12:56:52;98925.47;;;30.29;16.98
49178;BME280;35016;55.674;37.468;2023-04-23T12:59:20;98913.81;;;30.44;16.22
49178;BME280;35016;55.674;37.468;2023-04-23T13:01:47;98926.53;;;30.60;16.16
49178;BME280;35016;55.674;37.468;2023-04-23T13:04:14;98935.41;;;30.44;16.33
49178;BME280;35016;55.674;37.468;2023-04-23T13:06:42;98937.50;;;30.22;16.33
49178;BME280;35016;55.674;37.468;2023-04-23T13:09:09;98934.78;;;29.44;16.36
49178;BME280;35016;55.674;37.468;2023-04-23T13:11:38;98925.41;;;28.40;16.87
49178;BME280;35016;55.674;37.468;2023-04-23T13:14:06;98930.81;;;28.08;17.21
49178;BME280;35016;55.674;37.468;2023-04-23T13:16:33;98934.00;;;28.06;17.06
49178;BME280;35016;55.674;37.468;2023-04-23T13:19:00;98919.91;;;28.72;16.98